createdAt,value
2022-12-26T00:01:32.300Z,3.91
2022-12-26T00:04:48.841Z,3.89
2022-12-26T00:07:55.575Z,3.92
2022-12-26T00:10:58.764Z,3.92
2022-12-26T00:14:05.246Z,3.88
2022-12-26T00:17:08.110Z,3.89
2022-12-26T00:20:11.134Z,3.89
2022-12-26T00:23:13.976Z,3.88
2022-12-26T00:26:19.153Z,3.88
2022-12-26T00:29:22.938Z,3.85
2022-12-26T00:32:25.571Z,3.88
2022-12-26T00:35:28.424Z,3.93
2022-12-26T00:38:31.325Z,3.96
2022-12-26T00:41:34.285Z,3.89
2022-12-26T00:44:36.849Z,3.89
2022-12-26T00:47:39.647Z,3.87
2022-12-26T00:50:42.316Z,3.88
2022-12-26T00:53:45.545Z,3.86
2022-12-26T00:56:48.132Z,3.82
2022-12-26T00:59:50.953Z,3.76
2022-12-26T01:02:53.852Z,3.76
2022-12-26T01:05:56.895Z,3.77
2022-12-26T01:08:59.793Z,3.75
2022-12-26T01:12:02.757Z,3.76
2022-12-26T01:15:06.647Z,3.70
2022-12-26T01:18:09.456Z,3.70
2022-12-26T01:21:11.989Z,3.67
2022-12-26T01:24:14.967Z,3.64
2022-12-26T01:27:17.543Z,3.51
2022-12-26T01:30:20.386Z,3.54
2022-12-26T01:33:22.942Z,3.59
2022-12-26T01:36:25.728Z,3.65
2022-12-26T01:39:28.512Z,3.62
2022-12-26T01:42:38.299Z,3.60
2022-12-26T01:45:43.682Z,3.59
2022-12-26T01:48:46.939Z,3.54
2022-12-26T01:51:53.554Z,3.55
2022-12-26T01:54:56.959Z,3.55
2022-12-26T01:58:05.286Z,3.59
2022-12-26T02:01:09.095Z,3.65
2022-12-26T02:04:35.272Z,3.72
2022-12-26T02:07:40.850Z,3.78
2022-12-26T02:11:00.311Z,3.87
2022-12-26T02:14:06.467Z,3.92
2022-12-26T02:17:09.231Z,3.96
2022-12-26T02:20:19.489Z,3.98
2022-12-26T02:23:37.064Z,3.94
2022-12-26T02:27:14.748Z,3.99
2022-12-26T02:30:32.344Z,4.01
2022-12-26T02:33:37.823Z,4.12
2022-12-26T02:36:58.921Z,4.17
2022-12-26T02:40:16.897Z,4.25
2022-12-26T02:43:56.507Z,4.32
2022-12-26T02:47:10.343Z,4.29
2022-12-26T02:50:42.641Z,4.31
2022-12-26T02:54:28.489Z,4.33
2022-12-26T02:58:00.962Z,4.38
2022-12-26T03:01:26.172Z,4.42
2022-12-26T03:04:52.761Z,4.50
2022-12-26T03:08:14.510Z,4.56
2022-12-26T03:11:35.862Z,4.58
2022-12-26T03:14:44.499Z,4.49
2022-12-26T03:17:56.022Z,4.60
2022-12-26T03:21:00.090Z,4.64
2022-12-26T03:24:02.781Z,4.73
2022-12-26T03:27:05.663Z,4.71
2022-12-26T03:30:27.607Z,4.74
2022-12-26T03:33:52.005Z,4.75
2022-12-26T03:37:07.977Z,4.80
2022-12-26T03:40:40.802Z,4.85
2022-12-26T03:44:21.130Z,4.83
2022-12-26T03:47:55.476Z,4.91
2022-12-26T03:51:48.795Z,4.87
2022-12-26T03:55:20.006Z,4.88
2022-12-26T03:58:52.171Z,4.89
2022-12-26T04:02:14.383Z,4.91
2022-12-26T04:05:36.350Z,4.95
2022-12-26T04:09:08.771Z,4.96
2022-12-26T04:12:35.386Z,4.99
2022-12-26T04:15:59.024Z,5.01
2022-12-26T04:19:27.020Z,5.01
2022-12-26T04:23:01.966Z,4.95
2022-12-26T04:26:30.986Z,4.97
2022-12-26T04:29:52.001Z,4.98
2022-12-26T04:33:16.235Z,4.87
2022-12-26T04:36:44.523Z,4.98
2022-12-26T04:40:08.546Z,5.01
2022-12-26T04:43:48.894Z,5.06
2022-12-26T04:46:54.395Z,5.03
2022-12-26T04:50:12.135Z,5.06
2022-12-26T04:53:15.447Z,5.09
2022-12-26T04:56:18.885Z,5.14
2022-12-26T04:59:22.516Z,5.20
2022-12-26T05:02:43.406Z,5.22
2022-12-26T05:06:13.366Z,5.31
2022-12-26T05:09:37.399Z,5.28
2022-12-26T05:12:40.208Z,5.31
2022-12-26T05:16:01.635Z,5.33
2022-12-26T05:19:23.345Z,5.31
2022-12-26T05:22:47.924Z,5.31
2022-12-26T05:26:09.085Z,5.31
2022-12-26T05:29:11.871Z,5.31
2022-12-26T05:32:14.803Z,5.28
2022-12-26T05:35:17.425Z,5.26
2022-12-26T05:38:22.986Z,5.21
2022-12-26T05:41:25.807Z,5.15
2022-12-26T05:44:28.626Z,5.05
2022-12-26T05:47:31.372Z,4.97
2022-12-26T05:50:34.476Z,4.88
2022-12-26T05:53:37.053Z,4.77
2022-12-26T05:56:43.048Z,4.68
2022-12-26T05:59:50.091Z,4.51
2022-12-26T06:02:53.034Z,4.38
2022-12-26T06:05:57.520Z,4.24
2022-12-26T06:09:00.236Z,4.09
2022-12-26T06:12:03.079Z,3.99
2022-12-26T06:15:06.171Z,3.99
2022-12-26T06:18:09.101Z,4.14
2022-12-26T06:21:14.550Z,4.21
2022-12-26T06:24:17.437Z,4.22
2022-12-26T06:27:19.992Z,4.23
2022-12-26T06:30:22.842Z,4.33
2022-12-26T06:36:29.707Z,4.44
2022-12-26T06:39:32.408Z,4.50
2022-12-26T06:42:37.619Z,4.58
2022-12-26T06:45:40.199Z,4.58
2022-12-26T06:48:43.164Z,4.60
2022-12-26T06:51:45.851Z,4.62
2022-12-26T06:54:48.729Z,4.72
2022-12-26T06:57:52.729Z,4.73
2022-12-26T07:00:55.597Z,4.72
2022-12-26T07:03:58.573Z,4.70
2022-12-26T07:07:01.354Z,4.67
2022-12-26T07:10:04.239Z,4.62
2022-12-26T07:13:07.123Z,4.59
2022-12-26T07:16:10.745Z,4.54
2022-12-26T07:19:14.698Z,4.54
2022-12-26T07:22:17.286Z,4.55
2022-12-26T07:25:20.140Z,4.60
2022-12-26T07:28:22.732Z,4.64
2022-12-26T07:31:28.213Z,4.75
2022-12-26T07:34:32.389Z,4.81
2022-12-26T07:37:36.000Z,4.91
2022-12-26T07:40:38.719Z,5.04
2022-12-26T07:43:41.573Z,5.19
2022-12-26T07:46:44.255Z,5.28
2022-12-26T07:49:47.380Z,5.27
2022-12-26T07:52:50.222Z,5.27
2022-12-26T07:55:53.045Z,5.27
2022-12-26T07:58:55.620Z,5.31
2022-12-26T08:01:59.980Z,5.38
2022-12-26T08:05:04.079Z,5.45
2022-12-26T08:08:06.680Z,5.52
2022-12-26T08:11:15.007Z,5.55
2022-12-26T08:14:17.476Z,5.59
2022-12-26T08:17:20.455Z,5.64
2022-12-26T08:20:23.062Z,5.73
2022-12-26T08:23:26.013Z,5.75
2022-12-26T08:26:28.591Z,5.91
2022-12-26T08:29:31.637Z,5.92
2022-12-26T08:32:36.225Z,6.04
2022-12-26T08:35:41.170Z,6.11
2022-12-26T08:38:43.899Z,6.20
2022-12-26T08:41:46.804Z,6.35
2022-12-26T08:44:49.542Z,6.52
2022-12-26T08:47:54.411Z,6.63
2022-12-26T08:51:05.868Z,6.72
2022-12-26T08:54:08.836Z,6.81
2022-12-26T08:57:11.392Z,6.93
2022-12-26T09:00:14.892Z,6.68
2022-12-26T09:03:17.568Z,6.92
2022-12-26T09:06:20.661Z,6.57
2022-12-26T09:09:23.290Z,6.89
2022-12-26T09:12:26.519Z,6.78
2022-12-26T09:15:29.109Z,7.08
2022-12-26T09:18:32.155Z,6.97
2022-12-26T09:21:34.775Z,6.96
2022-12-26T09:24:38.054Z,7.17
2022-12-26T09:27:40.570Z,7.32
2022-12-26T09:30:45.035Z,7.42
2022-12-26T09:33:48.677Z,7.63
2022-12-26T09:36:51.578Z,7.63
2022-12-26T09:39:54.162Z,7.72
2022-12-26T09:43:05.081Z,7.42
2022-12-26T09:46:13.071Z,7.68
2022-12-26T09:49:31.492Z,7.83
2022-12-26T09:52:53.667Z,7.65
2022-12-26T09:55:59.612Z,7.96
2022-12-26T09:59:06.821Z,7.84
2022-12-26T10:02:17.529Z,7.91
2022-12-26T10:05:26.633Z,8.18
2022-12-26T10:09:06.628Z,8.17
2022-12-26T10:12:24.834Z,7.66
2022-12-26T10:15:39.781Z,7.90
2022-12-26T10:19:18.393Z,8.20
2022-12-26T10:22:56.380Z,7.97
2022-12-26T10:26:09.790Z,8.15
2022-12-26T10:29:17.527Z,8.10
2022-12-26T10:32:31.008Z,8.19
2022-12-26T10:35:40.810Z,8.00
2022-12-26T10:38:46.225Z,8.08
2022-12-26T10:41:53.718Z,8.03
2022-12-26T10:44:58.069Z,8.14
2022-12-26T10:48:00.684Z,8.18
2022-12-26T10:51:03.555Z,8.17
2022-12-26T10:54:15.008Z,8.26
2022-12-26T10:57:18.005Z,8.27
2022-12-26T11:00:23.370Z,8.24
2022-12-26T11:03:26.314Z,8.24
2022-12-26T11:06:38.596Z,8.38
2022-12-26T11:09:45.818Z,8.41
2022-12-26T11:12:55.402Z,8.38
2022-12-26T11:15:58.269Z,8.35
2022-12-26T11:19:00.968Z,8.44
2022-12-26T11:22:30.156Z,8.44
2022-12-26T11:25:35.269Z,8.44
2022-12-26T11:28:38.465Z,8.57
2022-12-26T11:31:43.441Z,8.59
2022-12-26T11:34:48.179Z,8.60
2022-12-26T11:37:54.231Z,8.57
2022-12-26T11:41:15.796Z,8.65
2022-12-26T11:44:28.352Z,8.63
2022-12-26T11:47:31.205Z,8.64
2022-12-26T11:50:35.448Z,8.65
2022-12-26T11:53:38.309Z,8.72
2022-12-26T11:56:40.859Z,8.71
2022-12-26T11:59:44.255Z,8.59
2022-12-26T12:02:47.068Z,8.58
2022-12-26T12:06:02.078Z,8.60
2022-12-26T12:09:20.207Z,8.59
2022-12-26T12:12:33.585Z,8.55
2022-12-26T12:16:15.097Z,8.16
2022-12-26T12:19:36.598Z,8.31
2022-12-26T12:22:48.288Z,8.43
2022-12-26T12:26:10.434Z,8.29
2022-12-26T12:29:15.931Z,8.11
2022-12-26T12:32:28.869Z,8.20
2022-12-26T12:35:31.617Z,8.18
2022-12-26T12:38:56.714Z,8.17
2022-12-26T12:42:36.732Z,8.19
2022-12-26T12:45:48.652Z,8.17
2022-12-26T12:49:18.749Z,8.18
2022-12-26T12:52:48.277Z,8.21
2022-12-26T12:56:03.095Z,8.18
2022-12-26T12:59:08.985Z,8.13
2022-12-26T13:02:21.224Z,8.11
2022-12-26T13:05:52.512Z,8.09
2022-12-26T13:09:02.713Z,8.05
2022-12-26T13:12:07.369Z,8.00
2022-12-26T13:15:22.061Z,7.94
2022-12-26T13:18:29.560Z,7.89
2022-12-26T13:21:36.328Z,7.85
2022-12-26T13:24:45.293Z,7.80
2022-12-26T13:27:48.903Z,7.79
2022-12-26T13:30:55.882Z,7.76
2022-12-26T13:33:59.059Z,7.71
2022-12-26T13:37:02.048Z,7.69
2022-12-26T13:40:13.830Z,7.63
2022-12-26T13:43:41.984Z,7.62
2022-12-26T13:46:47.591Z,7.56
2022-12-26T13:49:50.645Z,7.55
2022-12-26T13:52:53.521Z,7.51
2022-12-26T13:55:58.223Z,7.49
2022-12-26T13:59:19.191Z,7.44
2022-12-26T14:03:17.211Z,7.38
2022-12-26T14:06:27.326Z,7.37
2022-12-26T14:09:42.451Z,7.37
2022-12-26T14:13:10.359Z,7.42
2022-12-26T14:16:40.786Z,7.39
2022-12-26T14:20:08.607Z,7.42
2022-12-26T14:23:28.256Z,7.43
2022-12-26T14:26:30.958Z,7.33
2022-12-26T14:29:44.992Z,7.28
2022-12-26T14:32:54.010Z,7.21
2022-12-26T14:36:26.305Z,7.23
2022-12-26T14:40:01.360Z,7.18
2022-12-26T14:43:15.111Z,7.16
2022-12-26T14:46:30.183Z,7.10
2022-12-26T14:49:35.886Z,7.03
2022-12-26T14:52:40.935Z,7.02
2022-12-26T14:55:58.594Z,6.97
2022-12-26T14:59:33.257Z,6.89
2022-12-26T15:02:36.089Z,6.77
2022-12-26T15:05:41.740Z,6.69
2022-12-26T15:08:59.421Z,6.63
2022-12-26T15:12:14.157Z,6.58
2022-12-26T15:15:28.829Z,6.51
2022-12-26T15:19:26.235Z,6.41
2022-12-26T15:22:52.162Z,6.30
2022-12-26T15:25:57.606Z,6.28
2022-12-26T15:29:18.449Z,6.26
2022-12-26T15:32:39.733Z,6.26
2022-12-26T15:35:45.137Z,6.23
2022-12-26T15:39:02.988Z,6.21
2022-12-26T15:42:11.810Z,6.19
2022-12-26T15:45:32.642Z,6.15
2022-12-26T15:48:35.237Z,6.12
2022-12-26T15:52:07.674Z,6.12
2022-12-26T15:55:34.511Z,6.08
2022-12-26T15:59:10.001Z,6.01
2022-12-26T16:02:15.529Z,5.89
2022-12-26T16:05:29.961Z,5.91
2022-12-26T16:09:05.011Z,5.92
2022-12-26T16:12:32.981Z,6.03
2022-12-26T16:15:45.839Z,6.04
2022-12-26T16:18:48.800Z,6.06
2022-12-26T16:22:13.485Z,6.00
2022-12-26T16:25:24.601Z,5.95
2022-12-26T16:28:36.834Z,5.96
2022-12-26T16:31:39.864Z,5.99
2022-12-26T16:34:43.125Z,6.03
2022-12-26T16:37:46.829Z,6.03
2022-12-26T16:40:51.472Z,6.04
2022-12-26T16:43:55.815Z,6.06
2022-12-26T16:47:08.196Z,5.97
2022-12-26T16:50:20.651Z,5.83
2022-12-26T16:53:26.127Z,5.72
2022-12-26T16:56:34.002Z,5.62
2022-12-26T16:59:57.635Z,5.52
2022-12-26T17:03:01.481Z,5.53
2022-12-26T17:06:09.948Z,5.49
2022-12-26T17:09:17.154Z,5.46
2022-12-26T17:12:26.553Z,5.55
2022-12-26T17:15:35.587Z,5.57
2022-12-26T17:18:48.464Z,5.64
2022-12-26T17:22:19.148Z,5.70
2022-12-26T17:25:27.983Z,5.74
2022-12-26T17:28:31.209Z,5.78
2022-12-26T17:31:37.934Z,5.81
2022-12-26T17:34:41.051Z,5.82
2022-12-26T17:37:44.523Z,6.03
2022-12-26T17:40:48.267Z,5.85
2022-12-26T17:43:52.602Z,5.82
2022-12-26T17:46:55.400Z,5.80
2022-12-26T17:49:58.339Z,5.81
2022-12-26T17:53:07.002Z,5.79
2022-12-26T17:56:22.711Z,5.80
2022-12-26T17:59:25.964Z,5.77
2022-12-26T18:02:28.527Z,5.74
2022-12-26T18:05:31.557Z,5.73
2022-12-26T18:08:37.076Z,5.73
2022-12-26T18:11:40.133Z,5.75
2022-12-26T18:14:43.022Z,5.74
2022-12-26T18:17:47.446Z,5.75
2022-12-26T18:20:50.334Z,5.76
2022-12-26T18:23:53.324Z,5.79
2022-12-26T18:26:55.964Z,5.81
2022-12-26T18:30:00.213Z,5.80
2022-12-26T18:33:02.723Z,5.81
2022-12-26T18:36:07.822Z,5.80
2022-12-26T18:39:14.887Z,5.80
2022-12-26T18:42:18.242Z,5.79
2022-12-26T18:45:20.865Z,5.80
2022-12-26T18:48:23.780Z,5.83
2022-12-26T18:51:28.064Z,5.88
2022-12-26T18:54:31.198Z,5.84
2022-12-26T18:57:33.848Z,5.82
2022-12-26T19:00:36.752Z,5.80
2022-12-26T19:03:39.981Z,5.77
2022-12-26T19:06:43.289Z,5.82
2022-12-26T19:09:50.839Z,5.83
2022-12-26T19:12:56.395Z,5.86
2022-12-26T19:16:02.497Z,5.87
2022-12-26T19:19:08.417Z,5.86
2022-12-26T19:22:11.457Z,5.87
2022-12-26T19:25:15.130Z,5.83
2022-12-26T19:28:17.825Z,5.84
2022-12-26T19:31:22.194Z,5.88
2022-12-26T19:34:29.092Z,5.85
2022-12-26T19:37:32.139Z,5.84
2022-12-26T19:40:34.733Z,5.81
2022-12-26T19:43:37.736Z,5.78
2022-12-26T19:46:40.807Z,5.88
2022-12-26T19:49:43.930Z,5.79
2022-12-26T19:52:46.484Z,5.72
2022-12-26T19:55:49.379Z,5.72
2022-12-26T19:58:56.388Z,5.59
2022-12-26T20:02:00.028Z,5.52
2022-12-26T20:05:03.376Z,5.50
2022-12-26T20:08:06.129Z,5.48
2022-12-26T20:11:12.962Z,5.47
2022-12-26T20:14:17.968Z,5.48
2022-12-26T20:17:20.931Z,5.46
2022-12-26T20:20:23.631Z,5.45
2022-12-26T20:23:26.491Z,5.44
2022-12-26T20:26:31.324Z,5.42
2022-12-26T20:29:34.183Z,5.41
2022-12-26T20:32:36.864Z,5.41
2022-12-26T20:35:39.719Z,5.36
2022-12-26T20:38:43.034Z,5.34
2022-12-26T20:41:46.306Z,5.32
2022-12-26T20:44:49.062Z,5.32
2022-12-26T20:47:51.967Z,5.35
2022-12-26T20:50:58.854Z,5.36
2022-12-26T20:54:02.324Z,5.37
2022-12-26T20:57:04.909Z,5.36
2022-12-26T21:00:08.889Z,5.35
2022-12-26T21:03:12.763Z,5.37
2022-12-26T21:06:23.816Z,5.44
2022-12-26T21:09:26.511Z,5.46
2022-12-26T21:12:29.284Z,5.51
2022-12-26T21:15:31.896Z,5.49
2022-12-26T21:18:35.017Z,5.48
2022-12-26T21:21:40.004Z,5.47
2022-12-26T21:24:42.877Z,5.43
2022-12-26T21:27:49.504Z,5.43
2022-12-26T21:30:52.746Z,5.43
2022-12-26T21:33:56.751Z,5.48
2022-12-26T21:37:18.360Z,5.50
2022-12-26T21:40:23.625Z,5.53
2022-12-26T21:43:30.532Z,5.58
2022-12-26T21:46:33.173Z,5.62
2022-12-26T21:49:36.884Z,5.64
2022-12-26T21:52:39.454Z,5.63
2022-12-26T21:55:42.253Z,5.61
2022-12-26T21:59:03.562Z,5.60
2022-12-26T22:02:26.752Z,5.56
2022-12-26T22:05:30.916Z,5.57
2022-12-26T22:08:33.436Z,5.52
2022-12-26T22:11:55.272Z,5.53
2022-12-26T22:14:57.761Z,5.63
2022-12-26T22:18:00.634Z,5.58
2022-12-26T22:21:05.295Z,5.57
2022-12-26T22:24:10.445Z,5.54
2022-12-26T22:27:12.955Z,5.53
2022-12-26T22:30:15.903Z,5.54
2022-12-26T22:33:20.215Z,5.54
2022-12-26T22:36:23.379Z,5.54
2022-12-26T22:39:25.957Z,5.52
2022-12-26T22:42:30.182Z,5.47
2022-12-26T22:45:32.694Z,5.43
2022-12-26T22:48:35.907Z,5.37
2022-12-26T22:51:38.541Z,5.35
2022-12-26T22:54:43.712Z,5.30
2022-12-26T22:57:51.090Z,5.27
2022-12-26T23:00:55.871Z,5.25
2022-12-26T23:04:00.785Z,5.25
2022-12-26T23:07:03.993Z,5.24
2022-12-26T23:10:07.911Z,5.23
2022-12-26T23:13:15.091Z,5.22
2022-12-26T23:16:39.102Z,5.25
2022-12-26T23:20:10.461Z,5.26
2022-12-26T23:23:13.626Z,5.27
2022-12-26T23:26:16.424Z,5.28
2022-12-26T23:29:41.235Z,5.27
2022-12-26T23:32:46.736Z,5.31
2022-12-26T23:35:49.286Z,5.35
2022-12-26T23:38:52.145Z,5.38
2022-12-26T23:41:54.895Z,5.42
2022-12-26T23:44:57.799Z,5.43
2022-12-26T23:48:00.335Z,5.43
2022-12-26T23:51:05.170Z,5.41
2022-12-26T23:54:08.453Z,5.39
2022-12-26T23:57:11.420Z,5.35
